createdAt,value
2023-05-10T00:01:41.403Z,15.68
2023-05-10T00:04:08.711Z,15.43
2023-05-10T00:06:35.622Z,16.15
2023-05-10T00:09:02.337Z,15.60
2023-05-10T00:19:04.985Z,13.70
2023-05-10T00:21:33.138Z,16.80
2023-05-10T00:24:00.035Z,14.52
2023-05-10T00:26:27.134Z,16.38
2023-05-10T00:28:53.836Z,14.88
2023-05-10T00:31:20.518Z,18.75
2023-05-10T00:33:47.255Z,18.60
2023-05-10T00:36:15.243Z,20.75
2023-05-10T00:38:42.031Z,19.15
2023-05-10T00:41:08.985Z,17.65
2023-05-10T00:43:35.722Z,19.38
2023-05-10T00:46:02.574Z,17.90
2023-05-10T00:48:30.441Z,19.33
2023-05-10T00:50:57.184Z,19.48
2023-05-10T00:53:25.681Z,20.77
2023-05-10T00:55:52.482Z,19.73
2023-05-10T00:58:19.267Z,20.38
2023-05-10T01:00:47.558Z,22.20
2023-05-10T01:03:15.379Z,20.25
2023-05-10T01:05:42.287Z,20.48
2023-05-10T01:08:09.660Z,21.08
2023-05-10T01:10:37.855Z,22.85
2023-05-10T01:13:04.948Z,19.83
2023-05-10T01:15:32.392Z,20.70
2023-05-10T01:18:00.534Z,21.13
2023-05-10T01:20:33.093Z,21.90
2023-05-10T01:23:25.693Z,19.50
2023-05-10T01:26:19.642Z,19.15
2023-05-10T01:29:11.587Z,17.38
2023-05-10T01:32:13.719Z,19.00
2023-05-10T01:34:52.749Z,20.90
2023-05-10T01:37:26.200Z,17.58
2023-05-10T01:40:02.192Z,16.75
2023-05-10T01:42:37.710Z,18.80
2023-05-10T01:45:13.264Z,20.27
2023-05-10T01:47:43.344Z,18.50
2023-05-10T01:50:18.531Z,17.80
2023-05-10T01:52:55.735Z,18.58
2023-05-10T01:55:26.181Z,19.17
2023-05-10T01:58:01.372Z,17.67
2023-05-10T02:00:29.829Z,19.85
2023-05-10T02:02:57.550Z,17.90
2023-05-10T02:05:28.817Z,19.23
2023-05-10T02:07:56.504Z,18.35
2023-05-10T02:10:23.361Z,18.27
2023-05-10T02:12:52.785Z,19.33
2023-05-10T02:15:23.222Z,18.00
2023-05-10T02:17:50.630Z,21.95
2023-05-10T02:20:20.188Z,19.17
2023-05-10T02:22:50.266Z,19.15
2023-05-10T02:25:18.897Z,16.60
2023-05-10T02:27:47.972Z,18.95
2023-05-10T02:30:15.982Z,19.00
2023-05-10T02:32:44.057Z,20.27
2023-05-10T02:35:12.127Z,19.85
2023-05-10T02:37:40.782Z,19.52
2023-05-10T02:40:11.237Z,21.15
2023-05-10T02:42:42.534Z,23.27
2023-05-10T02:45:13.112Z,19.25
2023-05-10T02:47:40.236Z,22.60
2023-05-10T02:50:08.212Z,26.25
2023-05-10T02:52:41.253Z,26.38
2023-05-10T02:55:12.702Z,25.00
2023-05-10T03:00:09.816Z,24.85
2023-05-10T03:02:37.376Z,24.17
2023-05-10T03:05:05.031Z,23.85
2023-05-10T03:07:31.770Z,27.08
2023-05-10T03:09:58.500Z,27.42
2023-05-10T03:12:34.548Z,30.23
2023-05-10T03:15:12.996Z,22.75
2023-05-10T03:17:48.248Z,25.50
2023-05-10T03:20:24.253Z,24.83
2023-05-10T03:22:54.749Z,21.45
2023-05-10T03:25:23.144Z,23.38
2023-05-10T03:27:53.017Z,26.05
2023-05-10T03:30:21.047Z,23.52
2023-05-10T03:32:47.996Z,23.10
2023-05-10T03:35:17.828Z,25.52
2023-05-10T03:37:44.591Z,24.20
2023-05-10T03:40:12.017Z,25.15
2023-05-10T03:42:38.702Z,23.15
2023-05-10T03:45:08.291Z,24.23
2023-05-10T03:47:34.966Z,25.33
2023-05-10T03:50:01.877Z,24.65
2023-05-10T03:52:28.603Z,24.42
2023-05-10T03:54:55.248Z,23.13
2023-05-10T03:57:21.933Z,22.15
2023-05-10T03:59:48.608Z,21.08
2023-05-10T04:02:16.705Z,24.38
2023-05-10T04:04:44.020Z,21.52
2023-05-10T04:07:11.394Z,23.50
2023-05-10T04:09:38.227Z,22.10
2023-05-10T04:12:05.409Z,22.48
2023-05-10T04:14:32.199Z,23.50
2023-05-10T04:16:59.122Z,22.88
2023-05-10T04:19:30.300Z,22.77
2023-05-10T04:21:57.050Z,24.02
2023-05-10T04:24:23.791Z,19.77
2023-05-10T04:26:50.522Z,21.63
2023-05-10T04:29:17.295Z,24.05
2023-05-10T04:31:43.940Z,21.50
2023-05-10T04:34:10.653Z,18.98
2023-05-10T04:36:38.709Z,23.10
2023-05-10T04:39:05.414Z,22.13
2023-05-10T04:41:32.181Z,21.98
2023-05-10T04:43:58.839Z,23.33
2023-05-10T04:46:25.904Z,22.15
2023-05-10T04:48:52.789Z,19.95
2023-05-10T04:51:19.504Z,18.95
2023-05-10T04:54:01.543Z,20.38
2023-05-10T04:56:33.575Z,23.17
2023-05-10T04:59:01.784Z,21.50
2023-05-10T05:01:28.530Z,19.02
2023-05-10T05:03:55.537Z,21.33
2023-05-10T05:06:22.412Z,21.95
2023-05-10T05:08:50.677Z,19.48
2023-05-10T05:11:17.762Z,23.38
2023-05-10T05:13:44.836Z,19.45
2023-05-10T05:16:12.376Z,20.83
2023-05-10T05:18:39.433Z,20.33
2023-05-10T05:21:16.055Z,20.98
2023-05-10T05:23:42.850Z,17.73
2023-05-10T05:26:11.649Z,22.60
2023-05-10T05:28:38.658Z,18.95
2023-05-10T05:31:05.671Z,20.80
2023-05-10T05:33:32.556Z,18.63
2023-05-10T05:36:01.582Z,22.38
2023-05-10T05:38:28.431Z,23.88
2023-05-10T05:40:55.224Z,20.38
2023-05-10T05:43:23.582Z,19.90
2023-05-10T05:45:50.722Z,19.30
2023-05-10T05:48:17.473Z,21.88
2023-05-10T05:50:44.450Z,19.67
2023-05-10T05:53:11.211Z,23.65
2023-05-10T05:55:38.022Z,19.33
2023-05-10T05:58:04.717Z,21.92
2023-05-10T06:00:33.934Z,20.52
2023-05-10T06:03:00.800Z,22.70
2023-05-10T06:05:27.722Z,21.67
2023-05-10T06:07:54.436Z,21.92
2023-05-10T06:10:21.209Z,21.42
2023-05-10T06:12:50.520Z,18.73
2023-05-10T06:15:17.962Z,21.75
2023-05-10T06:17:46.509Z,19.42
2023-05-10T06:20:14.138Z,20.00
2023-05-10T06:22:40.831Z,20.58
2023-05-10T06:25:08.659Z,21.40
2023-05-10T06:27:35.312Z,17.02
2023-05-10T06:30:12.355Z,21.10
2023-05-10T06:32:40.301Z,22.45
2023-05-10T06:35:09.715Z,19.17
2023-05-10T06:37:36.480Z,22.33
2023-05-10T06:40:03.356Z,19.27
2023-05-10T06:42:30.095Z,18.38
2023-05-10T06:44:56.847Z,16.50
2023-05-10T06:47:23.705Z,18.10
2023-05-10T06:49:50.596Z,21.08
2023-05-10T06:52:22.625Z,23.02
2023-05-10T06:54:49.790Z,21.10
2023-05-10T06:57:30.694Z,21.73
2023-05-10T06:59:58.855Z,22.63
2023-05-10T07:02:25.940Z,19.25
2023-05-10T07:04:53.460Z,22.48
2023-05-10T07:07:21.821Z,20.02
2023-05-10T07:09:48.618Z,21.60
2023-05-10T07:12:16.080Z,20.65
2023-05-10T07:14:43.046Z,24.00
2023-05-10T07:17:09.894Z,22.23
2023-05-10T07:19:37.004Z,24.08
2023-05-10T07:22:04.052Z,24.50
2023-05-10T07:24:33.359Z,23.23
2023-05-10T07:27:00.249Z,25.85
2023-05-10T07:29:27.191Z,27.35
2023-05-10T07:31:55.895Z,24.92
2023-05-10T07:34:23.875Z,25.25
2023-05-10T07:36:50.635Z,27.33
2023-05-10T07:39:26.579Z,25.73
2023-05-10T07:41:56.168Z,28.00
2023-05-10T07:44:23.084Z,32.30
2023-05-10T07:46:51.345Z,26.77
2023-05-10T07:49:18.018Z,27.55
2023-05-10T07:51:46.095Z,29.33
2023-05-10T07:54:13.807Z,25.88
2023-05-10T07:56:41.602Z,23.08
2023-05-10T07:59:11.318Z,26.80
2023-05-10T08:01:39.588Z,26.92
2023-05-10T08:04:06.413Z,26.17
2023-05-10T08:06:33.210Z,27.33
2023-05-10T08:09:01.010Z,27.38
2023-05-10T08:11:29.901Z,24.27
2023-05-10T08:13:56.572Z,23.95
2023-05-10T08:16:24.775Z,25.33
2023-05-10T08:18:52.064Z,22.63
2023-05-10T08:21:19.006Z,23.45
2023-05-10T08:23:45.731Z,22.08
2023-05-10T08:26:12.772Z,22.10
2023-05-10T08:28:39.684Z,22.02
2023-05-10T08:31:07.123Z,21.70
2023-05-10T08:33:35.266Z,23.42
2023-05-10T08:36:02.056Z,22.00
2023-05-10T08:38:28.875Z,18.20
2023-05-10T08:40:57.980Z,23.48
2023-05-10T08:43:27.981Z,15.20
2023-05-10T08:45:57.365Z,17.25
2023-05-10T08:48:25.962Z,17.85
2023-05-10T08:50:57.570Z,19.05
2023-05-10T08:53:28.268Z,18.77
2023-05-10T08:55:55.515Z,15.82
2023-05-10T08:58:22.439Z,14.98
2023-05-10T09:00:52.175Z,13.90
2023-05-10T09:03:19.179Z,15.02
2023-05-10T09:05:46.187Z,11.45
2023-05-10T09:08:16.754Z,13.82
2023-05-10T09:10:46.987Z,11.60
2023-05-10T09:13:15.489Z,13.77
2023-05-10T09:15:42.387Z,11.05
2023-05-10T09:18:09.137Z,11.70
2023-05-10T09:20:35.882Z,10.05
2023-05-10T09:23:02.858Z,9.68
2023-05-10T09:25:30.974Z,10.95
2023-05-10T09:27:57.769Z,8.82
2023-05-10T09:30:26.789Z,6.72
2023-05-10T09:32:54.436Z,8.23
2023-05-10T09:35:22.860Z,7.55
2023-05-10T09:37:52.099Z,7.65
2023-05-10T09:40:20.416Z,6.40
2023-05-10T09:42:56.696Z,7.35
2023-05-10T09:45:25.457Z,8.00
2023-05-10T09:47:52.961Z,6.88
2023-05-10T09:50:20.307Z,7.25
2023-05-10T09:52:49.992Z,7.90
2023-05-10T09:55:17.688Z,7.30
2023-05-10T09:57:44.861Z,7.63
2023-05-10T10:00:19.700Z,8.68
2023-05-10T10:02:48.660Z,8.38
2023-05-10T10:05:16.330Z,8.30
2023-05-10T10:07:43.340Z,7.13
2023-05-10T10:10:13.508Z,7.53
2023-05-10T10:12:41.977Z,5.43
2023-05-10T10:15:09.971Z,6.85
2023-05-10T10:17:39.964Z,7.13
2023-05-10T10:20:11.144Z,6.88
2023-05-10T10:22:39.684Z,5.85
2023-05-10T10:25:07.456Z,6.47
2023-05-10T10:27:46.080Z,5.78
2023-05-10T10:30:25.215Z,6.90
2023-05-10T10:33:27.347Z,5.10
2023-05-10T10:35:56.648Z,7.38
2023-05-10T10:38:23.929Z,6.05
2023-05-10T10:41:03.387Z,9.25
2023-05-10T10:43:31.376Z,8.25
2023-05-10T10:46:15.234Z,8.27
2023-05-10T10:48:49.053Z,9.10
2023-05-10T10:51:15.920Z,9.25
2023-05-10T10:53:43.832Z,8.48
2023-05-10T10:56:12.672Z,7.95
2023-05-10T10:58:40.097Z,7.38
2023-05-10T11:01:18.094Z,9.88
2023-05-10T11:04:21.076Z,8.15
2023-05-10T11:06:48.005Z,9.65
2023-05-10T11:09:14.753Z,7.72
2023-05-10T11:11:53.210Z,9.95
2023-05-10T11:14:23.000Z,8.35
2023-05-10T11:16:53.243Z,9.55
2023-05-10T11:19:21.464Z,8.27
2023-05-10T11:21:51.507Z,9.68
2023-05-10T11:24:20.124Z,8.98
2023-05-10T11:26:47.152Z,10.10
2023-05-10T11:29:14.753Z,9.07
2023-05-10T11:31:46.346Z,7.10
2023-05-10T11:34:23.550Z,8.40
2023-05-10T11:36:54.839Z,7.13
2023-05-10T11:39:22.563Z,9.45
2023-05-10T11:41:50.862Z,7.65
2023-05-10T11:44:18.426Z,7.15
2023-05-10T11:46:45.193Z,8.82
2023-05-10T11:49:12.759Z,9.43
2023-05-10T11:51:40.434Z,6.53
2023-05-10T11:54:10.651Z,8.00
2023-05-10T11:56:37.789Z,7.57
2023-05-10T11:59:05.352Z,7.00
2023-05-10T12:01:33.811Z,7.32
2023-05-10T12:04:01.858Z,7.22
2023-05-10T12:06:33.249Z,6.70
2023-05-10T12:11:29.719Z,5.72
2023-05-10T12:13:57.676Z,6.70
2023-05-10T12:16:30.467Z,6.40
2023-05-10T12:18:58.909Z,5.13
2023-05-10T12:21:26.666Z,6.40
2023-05-10T12:23:56.580Z,5.55
2023-05-10T12:26:24.282Z,6.50
2023-05-10T12:28:52.773Z,5.70
2023-05-10T12:31:20.221Z,5.63
2023-05-10T12:33:48.390Z,5.30
2023-05-10T12:36:16.690Z,4.93
2023-05-10T12:38:45.672Z,5.03
2023-05-10T12:41:14.107Z,5.85
2023-05-10T12:43:41.522Z,8.00
2023-05-10T12:46:12.709Z,4.97
2023-05-10T12:48:42.067Z,6.10
2023-05-10T12:51:10.551Z,5.20
2023-05-10T12:53:37.967Z,4.80
2023-05-10T12:56:05.315Z,4.18
2023-05-10T12:58:36.039Z,4.68
2023-05-10T13:01:03.945Z,7.00
2023-05-10T13:03:32.300Z,5.28
2023-05-10T13:05:59.052Z,5.13
2023-05-10T13:08:26.235Z,5.10
2023-05-10T13:10:53.258Z,4.65
2023-05-10T13:13:20.224Z,4.35
2023-05-10T13:15:47.067Z,6.25
2023-05-10T13:18:14.110Z,5.07
2023-05-10T13:20:44.124Z,5.45
2023-05-10T13:23:11.039Z,4.80
2023-05-10T13:25:39.934Z,5.15
2023-05-10T13:28:06.699Z,4.25
2023-05-10T13:30:33.639Z,4.75
2023-05-10T13:33:00.515Z,3.65
2023-05-10T13:35:27.281Z,4.22
2023-05-10T13:37:58.660Z,6.07
2023-05-10T13:40:25.636Z,4.63
2023-05-10T13:43:03.528Z,6.40
2023-05-10T13:45:30.496Z,6.05
2023-05-10T13:47:57.381Z,7.60
2023-05-10T13:50:24.575Z,7.07
2023-05-10T13:52:51.250Z,5.25
2023-05-10T13:55:19.640Z,6.32
2023-05-10T13:57:46.742Z,6.47
2023-05-10T14:00:14.512Z,6.00
2023-05-10T14:02:42.064Z,8.43
2023-05-10T14:05:09.347Z,6.25
2023-05-10T14:07:35.998Z,6.43
2023-05-10T14:10:02.683Z,7.35
2023-05-10T14:12:31.535Z,6.22
2023-05-10T14:14:59.150Z,7.22
2023-05-10T14:17:25.867Z,6.57
2023-05-10T14:19:53.886Z,6.18
2023-05-10T14:22:20.643Z,7.18
2023-05-10T14:24:47.921Z,7.22
2023-05-10T14:27:15.144Z,7.70
2023-05-10T14:29:43.242Z,7.18
2023-05-10T14:32:10.400Z,6.47
2023-05-10T14:34:38.286Z,7.43
2023-05-10T14:37:05.681Z,7.03
2023-05-10T14:39:32.625Z,7.15
2023-05-10T14:41:59.552Z,7.78
2023-05-10T14:44:27.197Z,5.50
2023-05-10T14:46:56.145Z,6.93
2023-05-10T14:49:25.782Z,5.60
2023-05-10T14:51:52.759Z,5.15
2023-05-10T14:54:19.525Z,5.90
2023-05-10T14:56:46.264Z,5.72
2023-05-10T14:59:15.537Z,4.93
2023-05-10T15:01:43.218Z,4.18
2023-05-10T15:04:12.293Z,4.00
2023-05-10T15:06:39.180Z,5.45
2023-05-10T15:09:06.005Z,4.22
2023-05-10T15:11:33.154Z,4.00
2023-05-10T15:13:59.910Z,3.75
2023-05-10T15:16:27.107Z,4.07
2023-05-10T15:18:56.722Z,3.83
2023-05-10T15:21:24.819Z,4.00
2023-05-10T15:23:51.662Z,3.13
2023-05-10T15:26:27.223Z,3.08
2023-05-10T15:28:53.880Z,3.60
2023-05-10T15:31:21.122Z,2.70
2023-05-10T15:34:00.856Z,2.80
2023-05-10T15:36:28.984Z,3.25
2023-05-10T15:38:56.057Z,2.75
2023-05-10T15:41:22.944Z,1.85
2023-05-10T15:43:49.882Z,3.08
2023-05-10T15:46:19.175Z,2.50
2023-05-10T15:48:47.090Z,1.90
2023-05-10T15:51:13.942Z,1.80
2023-05-10T15:53:56.502Z,2.05
2023-05-10T15:56:29.558Z,1.50
2023-05-10T15:58:56.434Z,2.40
2023-05-10T16:01:23.463Z,3.63
2023-05-10T16:03:50.426Z,2.40
2023-05-10T16:06:17.565Z,1.85
2023-05-10T16:08:46.402Z,1.90
2023-05-10T16:11:13.526Z,2.00
2023-05-10T16:13:40.504Z,2.65
2023-05-10T16:16:09.187Z,2.60
2023-05-10T16:18:39.613Z,2.72
2023-05-10T16:21:06.739Z,2.00
2023-05-10T16:23:33.474Z,2.75
2023-05-10T16:26:01.658Z,2.00
2023-05-10T16:28:28.857Z,2.20
2023-05-10T16:30:56.335Z,1.67
2023-05-10T16:33:23.212Z,2.30
2023-05-10T16:35:49.873Z,2.58
2023-05-10T16:38:22.772Z,1.70
2023-05-10T16:40:49.581Z,2.03
2023-05-10T16:43:21.720Z,2.33
2023-05-10T16:45:49.870Z,1.95
2023-05-10T16:48:16.949Z,1.95
2023-05-10T16:50:45.115Z,2.72
2023-05-10T16:53:11.821Z,2.35
2023-05-10T16:55:38.542Z,2.13
2023-05-10T16:58:05.754Z,1.52
2023-05-10T17:00:35.381Z,3.05
2023-05-10T17:03:03.843Z,1.73
2023-05-10T17:05:30.747Z,3.13
2023-05-10T17:07:58.134Z,1.85
2023-05-10T17:10:26.558Z,1.30
2023-05-10T17:12:53.884Z,2.03
2023-05-10T17:15:21.047Z,1.88
2023-05-10T17:17:51.206Z,2.15
2023-05-10T17:20:18.305Z,1.50
2023-05-10T17:22:46.195Z,1.23
2023-05-10T17:25:13.028Z,1.63
2023-05-10T17:27:42.302Z,2.08
2023-05-10T17:30:09.926Z,1.75
2023-05-10T17:32:36.679Z,1.35
2023-05-10T17:35:05.853Z,1.65
2023-05-10T17:37:34.163Z,1.80
2023-05-10T17:40:01.402Z,2.00
2023-05-10T17:42:28.214Z,1.80
2023-05-10T17:44:55.295Z,2.30
2023-05-10T17:47:22.983Z,3.65
2023-05-10T17:49:50.113Z,2.85
2023-05-10T17:52:18.288Z,2.50
2023-05-10T17:54:45.108Z,2.35
2023-05-10T17:57:12.108Z,2.25
2023-05-10T17:59:39.231Z,2.15
2023-05-10T18:02:05.932Z,2.63
2023-05-10T18:04:35.196Z,3.17
2023-05-10T18:07:02.076Z,3.08
2023-05-10T18:09:31.498Z,2.70
2023-05-10T18:11:58.205Z,4.90
2023-05-10T18:14:36.517Z,2.63
2023-05-10T18:17:09.947Z,3.67
2023-05-10T18:19:36.815Z,3.13
2023-05-10T18:22:03.634Z,3.15
2023-05-10T18:24:38.204Z,3.38
2023-05-10T18:27:06.808Z,4.55
2023-05-10T18:29:36.521Z,4.60
2023-05-10T18:32:03.660Z,3.55
2023-05-10T18:34:30.438Z,3.97
2023-05-10T18:37:00.266Z,4.43
2023-05-10T18:39:27.215Z,3.17
2023-05-10T18:41:55.538Z,2.85
2023-05-10T18:44:25.841Z,2.50
2023-05-10T18:46:54.259Z,3.08
2023-05-10T18:49:21.137Z,3.80
2023-05-10T18:51:49.027Z,2.63
2023-05-10T18:54:15.962Z,2.42
2023-05-10T18:56:45.180Z,3.70
2023-05-10T18:59:13.497Z,3.65
2023-05-10T19:01:41.130Z,4.03
2023-05-10T19:04:08.957Z,3.80
2023-05-10T19:06:36.096Z,3.72
2023-05-10T19:09:05.903Z,4.43
2023-05-10T19:11:34.542Z,4.05
2023-05-10T19:14:02.717Z,3.95
2023-05-10T19:16:30.974Z,2.72
2023-05-10T19:18:57.958Z,3.80
2023-05-10T19:21:24.922Z,4.50
2023-05-10T19:23:52.171Z,3.90
2023-05-10T19:26:19.332Z,2.95
2023-05-10T19:28:46.060Z,3.75
2023-05-10T19:31:13.012Z,4.78
2023-05-10T19:33:41.088Z,4.00
2023-05-10T19:36:07.903Z,3.92
2023-05-10T19:38:35.385Z,3.63
2023-05-10T19:41:02.172Z,5.35
2023-05-10T19:43:33.410Z,4.82
2023-05-10T19:46:02.251Z,4.32
2023-05-10T19:48:29.209Z,3.53
2023-05-10T19:51:02.244Z,4.38
2023-05-10T19:53:29.317Z,4.30
2023-05-10T19:56:03.352Z,4.50
2023-05-10T19:58:30.275Z,4.05
2023-05-10T20:00:57.039Z,4.35
2023-05-10T20:03:23.818Z,4.82
2023-05-10T20:05:50.823Z,4.90
2023-05-10T20:08:18.884Z,3.08
2023-05-10T20:10:45.929Z,4.57
2023-05-10T20:13:12.708Z,4.60
2023-05-10T20:15:39.360Z,4.50
2023-05-10T20:18:06.204Z,4.40
2023-05-10T20:20:33.040Z,4.40
2023-05-10T20:23:01.076Z,4.78
2023-05-10T20:25:29.184Z,4.75
2023-05-10T20:27:55.916Z,5.97
2023-05-10T20:30:22.660Z,4.72
2023-05-10T20:32:49.453Z,6.30
2023-05-10T20:35:16.355Z,5.93
2023-05-10T20:37:43.121Z,7.05
2023-05-10T20:40:11.125Z,5.70
2023-05-10T20:42:39.257Z,5.28
2023-05-10T20:45:07.263Z,5.50
2023-05-10T20:47:34.141Z,4.75
2023-05-10T20:50:00.830Z,4.97
2023-05-10T20:52:27.694Z,5.03
2023-05-10T20:54:54.426Z,5.20
2023-05-10T20:57:21.958Z,6.60
2023-05-10T20:59:51.215Z,7.10
2023-05-10T21:02:18.068Z,4.47
2023-05-10T21:04:45.106Z,5.65
2023-05-10T21:07:12.210Z,4.90
2023-05-10T21:09:38.932Z,6.28
2023-05-10T21:12:06.178Z,7.15
2023-05-10T21:14:33.071Z,6.88
2023-05-10T21:17:01.148Z,5.55
2023-05-10T21:19:28.843Z,6.78
2023-05-10T21:21:57.168Z,4.80
2023-05-10T21:24:24.042Z,7.18
2023-05-10T21:26:56.135Z,6.22
2023-05-10T21:29:22.798Z,6.53
2023-05-10T21:31:49.764Z,7.50
2023-05-10T21:34:18.008Z,7.35
2023-05-10T21:36:44.688Z,7.53
2023-05-10T21:39:11.646Z,9.38
2023-05-10T21:41:38.331Z,8.20
2023-05-10T21:44:05.395Z,7.85
2023-05-10T21:46:32.163Z,10.07
2023-05-10T21:48:58.898Z,10.10
2023-05-10T21:51:26.919Z,9.95
2023-05-10T21:53:53.655Z,8.38
2023-05-10T21:56:20.622Z,9.40
2023-05-10T21:58:47.606Z,8.57
2023-05-10T22:01:15.315Z,10.52
2023-05-10T22:03:42.789Z,10.60
2023-05-10T22:06:09.575Z,8.77
2023-05-10T22:08:37.695Z,10.30
2023-05-10T22:11:05.098Z,9.93
2023-05-10T22:13:31.800Z,11.50
2023-05-10T22:15:59.060Z,9.68
2023-05-10T22:18:25.894Z,10.85
2023-05-10T22:20:52.639Z,10.38
2023-05-10T22:23:19.401Z,10.55
2023-05-10T22:25:47.521Z,10.73
2023-05-10T22:28:14.566Z,11.98
2023-05-10T22:30:41.839Z,10.77
2023-05-10T22:33:08.732Z,10.75
2023-05-10T22:35:35.681Z,9.90
2023-05-10T22:38:02.475Z,11.07
2023-05-10T22:40:29.184Z,10.82
2023-05-10T22:42:57.381Z,10.77
2023-05-10T22:45:24.135Z,11.85
2023-05-10T22:47:51.196Z,12.75
2023-05-10T22:50:18.654Z,12.57
2023-05-10T22:52:45.773Z,10.82
2023-05-10T22:55:12.511Z,12.23
2023-05-10T22:57:39.480Z,11.05
2023-05-10T23:00:09.350Z,10.77
2023-05-10T23:02:36.252Z,11.38
2023-05-10T23:05:03.279Z,10.68
2023-05-10T23:07:30.060Z,12.00
2023-05-10T23:09:56.838Z,11.18
2023-05-10T23:12:24.047Z,11.55
2023-05-10T23:14:56.576Z,13.23
2023-05-10T23:17:24.795Z,12.73
2023-05-10T23:19:51.517Z,11.65
2023-05-10T23:22:18.284Z,13.15
2023-05-10T23:24:44.929Z,13.00
2023-05-10T23:27:11.682Z,14.48
2023-05-10T23:29:38.373Z,14.05
2023-05-10T23:32:05.712Z,12.60
2023-05-10T23:34:33.895Z,14.18
2023-05-10T23:37:00.696Z,12.98
2023-05-10T23:39:27.449Z,13.07
2023-05-10T23:41:54.647Z,14.98
2023-05-10T23:44:21.293Z,13.18
2023-05-10T23:46:47.914Z,13.75
2023-05-10T23:49:14.769Z,12.52
2023-05-10T23:51:42.856Z,12.13
2023-05-10T23:54:09.642Z,12.65
2023-05-10T23:56:36.515Z,11.98
2023-05-10T23:59:03.364Z,12.95
